sensor_id;sensor_type;location;lat;lon;timestamp;P1;durP1;ratioP1;P2;durP2;ratioP2
78402;SDS011;67687;43.508;1.504;2023-05-07T00:01:07;11.93;;;6.50;;
78402;SDS011;67687;43.508;1.504;2023-05-07T00:03:33;12.13;;;6.30;;
78402;SDS011;67687;43.508;1.504;2023-05-07T00:06:00;9.05;;;5.93;;
78402;SDS011;67687;43.508;1.504;2023-05-07T00:08:27;10.00;;;6.32;;
78402;SDS011;67687;43.508;1.504;2023-05-07T00:10:53;9.65;;;6.22;;
78402;SDS011;67687;43.508;1.504;2023-05-07T00:13:22;10.93;;;6.07;;
78402;SDS011;67687;43.508;1.504;2023-05-07T00:15:49;10.97;;;6.77;;
78402;SDS011;67687;43.508;1.504;2023-05-07T00:18:15;12.65;;;6.53;;
78402;SDS011;67687;43.508;1.504;2023-05-07T00:20:46;11.77;;;6.03;;
78402;SDS011;67687;43.508;1.504;2023-05-07T00:23:12;11.82;;;5.65;;
78402;SDS011;67687;43.508;1.504;2023-05-07T00:25:39;10.55;;;6.10;;
78402;SDS011;67687;43.508;1.504;2023-05-07T00:28:06;9.67;;;5.90;;
78402;SDS011;67687;43.508;1.504;2023-05-07T00:30:34;10.82;;;5.82;;
78402;SDS011;67687;43.508;1.504;2023-05-07T00:33:01;11.60;;;5.55;;
78402;SDS011;67687;43.508;1.504;2023-05-07T00:35:28;11.77;;;6.40;;
78402;SDS011;67687;43.508;1.504;2023-05-07T00:37:54;13.77;;;5.90;;
78402;SDS011;67687;43.508;1.504;2023-05-07T00:40:21;10.23;;;5.93;;
78402;SDS011;67687;43.508;1.504;2023-05-07T00:42:48;11.88;;;6.30;;
78402;SDS011;67687;43.508;1.504;2023-05-07T00:45:15;11.63;;;5.63;;
78402;SDS011;67687;43.508;1.504;2023-05-07T00:47:43;10.15;;;5.90;;
78402;SDS011;67687;43.508;1.504;2023-05-07T00:50:10;11.52;;;6.20;;
78402;SDS011;67687;43.508;1.504;2023-05-07T00:52:37;9.67;;;6.00;;
78402;SDS011;67687;43.508;1.504;2023-05-07T00:55:05;11.45;;;5.80;;
78402;SDS011;67687;43.508;1.504;2023-05-07T00:57:33;10.35;;;6.00;;
78402;SDS011;67687;43.508;1.504;2023-05-07T01:00:03;10.30;;;6.28;;
78402;SDS011;67687;43.508;1.504;2023-05-07T01:02:30;9.02;;;5.55;;
78402;SDS011;67687;43.508;1.504;2023-05-07T01:04:58;12.10;;;6.20;;
78402;SDS011;67687;43.508;1.504;2023-05-07T01:07:26;9.80;;;5.75;;
78402;SDS011;67687;43.508;1.504;2023-05-07T01:09:53;10.60;;;5.97;;
78402;SDS011;67687;43.508;1.504;2023-05-07T01:12:20;11.90;;;5.63;;
78402;SDS011;67687;43.508;1.504;2023-05-07T01:14:47;9.57;;;6.03;;
78402;SDS011;67687;43.508;1.504;2023-05-07T01:17:15;10.17;;;4.97;;
78402;SDS011;67687;43.508;1.504;2023-05-07T01:19:42;10.05;;;5.28;;
78402;SDS011;67687;43.508;1.504;2023-05-07T01:22:10;10.20;;;5.68;;
78402;SDS011;67687;43.508;1.504;2023-05-07T01:24:39;12.30;;;5.60;;
78402;SDS011;67687;43.508;1.504;2023-05-07T01:27:06;10.25;;;5.68;;
78402;SDS011;67687;43.508;1.504;2023-05-07T01:29:32;10.33;;;5.47;;
78402;SDS011;67687;43.508;1.504;2023-05-07T01:32:00;13.57;;;5.55;;
78402;SDS011;67687;43.508;1.504;2023-05-07T01:34:28;9.55;;;4.90;;
78402;SDS011;67687;43.508;1.504;2023-05-07T01:36:56;10.75;;;5.20;;
78402;SDS011;67687;43.508;1.504;2023-05-07T01:39:25;10.73;;;5.05;;
78402;SDS011;67687;43.508;1.504;2023-05-07T01:41:54;10.50;;;5.23;;
78402;SDS011;67687;43.508;1.504;2023-05-07T01:44:21;11.27;;;5.00;;
78402;SDS011;67687;43.508;1.504;2023-05-07T01:46:48;10.98;;;4.63;;
78402;SDS011;67687;43.508;1.504;2023-05-07T01:49:16;10.57;;;4.72;;
78402;SDS011;67687;43.508;1.504;2023-05-07T01:51:43;10.45;;;4.60;;
78402;SDS011;67687;43.508;1.504;2023-05-07T01:54:10;9.40;;;4.80;;
78402;SDS011;67687;43.508;1.504;2023-05-07T01:56:36;10.27;;;4.53;;
78402;SDS011;67687;43.508;1.504;2023-05-07T01:59:04;10.43;;;4.78;;
78402;SDS011;67687;43.508;1.504;2023-05-07T02:01:31;9.27;;;4.53;;
78402;SDS011;67687;43.508;1.504;2023-05-07T02:03:58;8.25;;;3.95;;
78402;SDS011;67687;43.508;1.504;2023-05-07T02:06:24;12.63;;;3.80;;
78402;SDS011;67687;43.508;1.504;2023-05-07T02:08:51;10.30;;;4.47;;
78402;SDS011;67687;43.508;1.504;2023-05-07T02:11:18;9.90;;;4.20;;
78402;SDS011;67687;43.508;1.504;2023-05-07T02:13:45;9.70;;;4.35;;
78402;SDS011;67687;43.508;1.504;2023-05-07T02:16:13;8.63;;;3.78;;
78402;SDS011;67687;43.508;1.504;2023-05-07T02:18:40;9.77;;;4.00;;
78402;SDS011;67687;43.508;1.504;2023-05-07T02:21:07;9.73;;;3.80;;
78402;SDS011;67687;43.508;1.504;2023-05-07T02:23:33;9.13;;;3.50;;
78402;SDS011;67687;43.508;1.504;2023-05-07T02:26:00;9.48;;;3.67;;
78402;SDS011;67687;43.508;1.504;2023-05-07T02:28:27;9.20;;;4.03;;
78402;SDS011;67687;43.508;1.504;2023-05-07T02:30:53;9.97;;;4.20;;
78402;SDS011;67687;43.508;1.504;2023-05-07T02:33:21;11.82;;;3.58;;
78402;SDS011;67687;43.508;1.504;2023-05-07T02:35:48;9.30;;;3.58;;
78402;SDS011;67687;43.508;1.504;2023-05-07T02:38:16;10.55;;;3.75;;
78402;SDS011;67687;43.508;1.504;2023-05-07T02:40:43;8.85;;;3.58;;
78402;SDS011;67687;43.508;1.504;2023-05-07T02:43:10;9.90;;;3.93;;
78402;SDS011;67687;43.508;1.504;2023-05-07T02:45:37;7.07;;;3.85;;
78402;SDS011;67687;43.508;1.504;2023-05-07T02:48:04;11.57;;;4.00;;
78402;SDS011;67687;43.508;1.504;2023-05-07T02:50:33;8.65;;;3.70;;
78402;SDS011;67687;43.508;1.504;2023-05-07T02:52:59;10.45;;;3.83;;
78402;SDS011;67687;43.508;1.504;2023-05-07T02:55:26;8.57;;;3.90;;
78402;SDS011;67687;43.508;1.504;2023-05-07T02:57:53;8.15;;;3.80;;
78402;SDS011;67687;43.508;1.504;2023-05-07T03:00:20;10.35;;;3.70;;
78402;SDS011;67687;43.508;1.504;2023-05-07T03:02:47;11.38;;;3.75;;
78402;SDS011;67687;43.508;1.504;2023-05-07T03:05:14;11.30;;;3.50;;
78402;SDS011;67687;43.508;1.504;2023-05-07T03:07:42;10.40;;;3.77;;
78402;SDS011;67687;43.508;1.504;2023-05-07T03:10:11;8.98;;;3.50;;
78402;SDS011;67687;43.508;1.504;2023-05-07T03:12:38;7.55;;;3.22;;
78402;SDS011;67687;43.508;1.504;2023-05-07T03:15:05;9.43;;;3.55;;
78402;SDS011;67687;43.508;1.504;2023-05-07T03:17:33;8.65;;;3.38;;
78402;SDS011;67687;43.508;1.504;2023-05-07T03:19:59;12.10;;;3.57;;
78402;SDS011;67687;43.508;1.504;2023-05-07T03:22:26;10.40;;;3.65;;
78402;SDS011;67687;43.508;1.504;2023-05-07T03:24:54;9.98;;;3.60;;
78402;SDS011;67687;43.508;1.504;2023-05-07T03:27:21;13.02;;;3.90;;
78402;SDS011;67687;43.508;1.504;2023-05-07T03:29:48;12.35;;;3.70;;
78402;SDS011;67687;43.508;1.504;2023-05-07T03:32:15;12.23;;;3.50;;
78402;SDS011;67687;43.508;1.504;2023-05-07T03:34:41;12.10;;;3.78;;
78402;SDS011;67687;43.508;1.504;2023-05-07T03:37:08;10.50;;;3.75;;
78402;SDS011;67687;43.508;1.504;2023-05-07T03:39:35;12.65;;;3.85;;
78402;SDS011;67687;43.508;1.504;2023-05-07T03:42:03;12.85;;;4.07;;
78402;SDS011;67687;43.508;1.504;2023-05-07T03:44:30;10.60;;;3.60;;
78402;SDS011;67687;43.508;1.504;2023-05-07T03:46:56;9.75;;;3.47;;
78402;SDS011;67687;43.508;1.504;2023-05-07T03:49:23;11.75;;;3.55;;
78402;SDS011;67687;43.508;1.504;2023-05-07T03:51:50;11.27;;;3.55;;
78402;SDS011;67687;43.508;1.504;2023-05-07T03:54:16;11.43;;;3.75;;
78402;SDS011;67687;43.508;1.504;2023-05-07T03:56:43;11.87;;;3.47;;
78402;SDS011;67687;43.508;1.504;2023-05-07T03:59:11;9.63;;;3.50;;
78402;SDS011;67687;43.508;1.504;2023-05-07T04:01:38;8.90;;;3.22;;
78402;SDS011;67687;43.508;1.504;2023-05-07T04:04:05;11.98;;;3.58;;
78402;SDS011;67687;43.508;1.504;2023-05-07T04:06:32;12.35;;;3.40;;
78402;SDS011;67687;43.508;1.504;2023-05-07T04:08:58;10.67;;;3.50;;
78402;SDS011;67687;43.508;1.504;2023-05-07T04:11:25;11.45;;;3.35;;
78402;SDS011;67687;43.508;1.504;2023-05-07T04:13:52;8.15;;;3.38;;
78402;SDS011;67687;43.508;1.504;2023-05-07T04:16:20;8.43;;;3.72;;
78402;SDS011;67687;43.508;1.504;2023-05-07T04:18:47;10.55;;;3.40;;
78402;SDS011;67687;43.508;1.504;2023-05-07T04:21:14;9.70;;;3.73;;
78402;SDS011;67687;43.508;1.504;2023-05-07T04:23:41;11.52;;;4.22;;
78402;SDS011;67687;43.508;1.504;2023-05-07T04:26:07;10.38;;;3.45;;
78402;SDS011;67687;43.508;1.504;2023-05-07T04:28:34;9.45;;;3.53;;
78402;SDS011;67687;43.508;1.504;2023-05-07T04:31:01;12.57;;;3.70;;
78402;SDS011;67687;43.508;1.504;2023-05-07T04:33:29;10.53;;;3.80;;
78402;SDS011;67687;43.508;1.504;2023-05-07T04:35:56;9.95;;;3.75;;
78402;SDS011;67687;43.508;1.504;2023-05-07T04:38:23;10.43;;;3.38;;
78402;SDS011;67687;43.508;1.504;2023-05-07T04:40:50;11.25;;;3.50;;
78402;SDS011;67687;43.508;1.504;2023-05-07T04:43:17;10.20;;;3.60;;
78402;SDS011;67687;43.508;1.504;2023-05-07T04:45:44;9.10;;;3.40;;
78402;SDS011;67687;43.508;1.504;2023-05-07T04:48:10;10.38;;;3.47;;
78402;SDS011;67687;43.508;1.504;2023-05-07T04:50:41;8.65;;;3.25;;
78402;SDS011;67687;43.508;1.504;2023-05-07T04:53:07;11.15;;;3.25;;
78402;SDS011;67687;43.508;1.504;2023-05-07T04:55:34;14.95;;;3.88;;
78402;SDS011;67687;43.508;1.504;2023-05-07T04:58:01;12.17;;;3.60;;
78402;SDS011;67687;43.508;1.504;2023-05-07T05:00:28;10.30;;;3.17;;
78402;SDS011;67687;43.508;1.504;2023-05-07T05:02:54;7.70;;;2.72;;
78402;SDS011;67687;43.508;1.504;2023-05-07T05:05:21;10.90;;;3.42;;
78402;SDS011;67687;43.508;1.504;2023-05-07T05:07:49;11.93;;;3.42;;
78402;SDS011;67687;43.508;1.504;2023-05-07T05:10:16;9.80;;;3.20;;
78402;SDS011;67687;43.508;1.504;2023-05-07T05:12:43;10.27;;;3.30;;
78402;SDS011;67687;43.508;1.504;2023-05-07T05:15:10;8.50;;;2.75;;
78402;SDS011;67687;43.508;1.504;2023-05-07T05:17:37;10.98;;;3.45;;
78402;SDS011;67687;43.508;1.504;2023-05-07T05:20:04;9.63;;;3.00;;
78402;SDS011;67687;43.508;1.504;2023-05-07T05:22:32;10.33;;;2.97;;
78402;SDS011;67687;43.508;1.504;2023-05-07T05:25:00;11.68;;;3.10;;
78402;SDS011;67687;43.508;1.504;2023-05-07T05:27:27;11.50;;;3.42;;
78402;SDS011;67687;43.508;1.504;2023-05-07T05:29:53;9.70;;;3.33;;
78402;SDS011;67687;43.508;1.504;2023-05-07T05:32:20;9.57;;;3.25;;
78402;SDS011;67687;43.508;1.504;2023-05-07T05:34:47;7.73;;;2.80;;
78402;SDS011;67687;43.508;1.504;2023-05-07T05:37:14;10.05;;;3.03;;
78402;SDS011;67687;43.508;1.504;2023-05-07T05:39:40;8.38;;;2.90;;
78402;SDS011;67687;43.508;1.504;2023-05-07T05:42:09;10.05;;;3.10;;
78402;SDS011;67687;43.508;1.504;2023-05-07T05:44:35;8.68;;;3.50;;
78402;SDS011;67687;43.508;1.504;2023-05-07T05:47:02;12.43;;;3.03;;
78402;SDS011;67687;43.508;1.504;2023-05-07T05:49:29;12.20;;;3.38;;
78402;SDS011;67687;43.508;1.504;2023-05-07T05:51:56;13.27;;;3.38;;
78402;SDS011;67687;43.508;1.504;2023-05-07T05:54:23;12.20;;;3.22;;
78402;SDS011;67687;43.508;1.504;2023-05-07T05:56:49;11.25;;;3.33;;
78402;SDS011;67687;43.508;1.504;2023-05-07T05:59:18;12.13;;;3.30;;
78402;SDS011;67687;43.508;1.504;2023-05-07T06:01:44;13.23;;;3.63;;
78402;SDS011;67687;43.508;1.504;2023-05-07T06:04:11;9.90;;;3.25;;
78402;SDS011;67687;43.508;1.504;2023-05-07T06:06:38;13.02;;;3.08;;
78402;SDS011;67687;43.508;1.504;2023-05-07T06:09:04;11.18;;;3.40;;
78402;SDS011;67687;43.508;1.504;2023-05-07T06:11:31;13.23;;;3.70;;
78402;SDS011;67687;43.508;1.504;2023-05-07T06:13:58;10.85;;;3.55;;
78402;SDS011;67687;43.508;1.504;2023-05-07T06:16:26;11.40;;;3.38;;
78402;SDS011;67687;43.508;1.504;2023-05-07T06:18:53;12.35;;;3.38;;
78402;SDS011;67687;43.508;1.504;2023-05-07T06:21:20;11.50;;;3.63;;
78402;SDS011;67687;43.508;1.504;2023-05-07T06:23:46;11.33;;;3.33;;
78402;SDS011;67687;43.508;1.504;2023-05-07T06:26:13;10.95;;;3.30;;
78402;SDS011;67687;43.508;1.504;2023-05-07T06:28:40;11.50;;;3.50;;
78402;SDS011;67687;43.508;1.504;2023-05-07T06:31:13;9.10;;;2.95;;
78402;SDS011;67687;43.508;1.504;2023-05-07T06:33:42;8.40;;;2.92;;
78402;SDS011;67687;43.508;1.504;2023-05-07T06:36:09;13.07;;;3.23;;
78402;SDS011;67687;43.508;1.504;2023-05-07T06:38:36;11.18;;;3.17;;
78402;SDS011;67687;43.508;1.504;2023-05-07T06:41:03;8.98;;;2.80;;
78402;SDS011;67687;43.508;1.504;2023-05-07T06:43:30;9.48;;;3.33;;
78402;SDS011;67687;43.508;1.504;2023-05-07T06:45:56;10.05;;;3.13;;
78402;SDS011;67687;43.508;1.504;2023-05-07T06:48:23;13.73;;;3.23;;
78402;SDS011;67687;43.508;1.504;2023-05-07T06:50:51;9.23;;;2.88;;
78402;SDS011;67687;43.508;1.504;2023-05-07T06:53:20;10.07;;;3.28;;
78402;SDS011;67687;43.508;1.504;2023-05-07T06:55:46;12.35;;;3.70;;
78402;SDS011;67687;43.508;1.504;2023-05-07T06:58:13;7.80;;;3.00;;
78402;SDS011;67687;43.508;1.504;2023-05-07T07:00:40;14.07;;;3.40;;
78402;SDS011;67687;43.508;1.504;2023-05-07T07:03:07;10.15;;;3.70;;
78402;SDS011;67687;43.508;1.504;2023-05-07T07:05:33;11.63;;;3.40;;
78402;SDS011;67687;43.508;1.504;2023-05-07T07:08:02;12.43;;;3.28;;
78402;SDS011;67687;43.508;1.504;2023-05-07T07:10:29;10.65;;;3.30;;
78402;SDS011;67687;43.508;1.504;2023-05-07T07:12:56;11.60;;;3.23;;
78402;SDS011;67687;43.508;1.504;2023-05-07T07:15:22;10.40;;;3.70;;
78402;SDS011;67687;43.508;1.504;2023-05-07T07:17:50;9.48;;;3.22;;
78402;SDS011;67687;43.508;1.504;2023-05-07T07:20:20;9.40;;;3.17;;
78402;SDS011;67687;43.508;1.504;2023-05-07T07:22:47;14.05;;;3.47;;
78402;SDS011;67687;43.508;1.504;2023-05-07T07:25:18;11.83;;;3.90;;
78402;SDS011;67687;43.508;1.504;2023-05-07T07:27:45;11.77;;;3.65;;
78402;SDS011;67687;43.508;1.504;2023-05-07T07:30:12;10.02;;;3.55;;
78402;SDS011;67687;43.508;1.504;2023-05-07T07:32:38;12.30;;;3.53;;
78402;SDS011;67687;43.508;1.504;2023-05-07T07:35:06;13.93;;;3.40;;
78402;SDS011;67687;43.508;1.504;2023-05-07T07:37:33;11.63;;;3.47;;
78402;SDS011;67687;43.508;1.504;2023-05-07T07:40:00;9.63;;;3.17;;
78402;SDS011;67687;43.508;1.504;2023-05-07T07:42:29;11.77;;;3.53;;
78402;SDS011;67687;43.508;1.504;2023-05-07T07:44:55;9.43;;;3.30;;
78402;SDS011;67687;43.508;1.504;2023-05-07T07:47:22;10.20;;;3.20;;
78402;SDS011;67687;43.508;1.504;2023-05-07T07:49:49;8.93;;;3.13;;
78402;SDS011;67687;43.508;1.504;2023-05-07T07:52:16;12.57;;;3.50;;
78402;SDS011;67687;43.508;1.504;2023-05-07T07:54:42;12.63;;;3.97;;
78402;SDS011;67687;43.508;1.504;2023-05-07T07:57:09;10.48;;;3.20;;
78402;SDS011;67687;43.508;1.504;2023-05-07T07:59:37;11.77;;;3.38;;
78402;SDS011;67687;43.508;1.504;2023-05-07T08:02:04;12.30;;;3.53;;
78402;SDS011;67687;43.508;1.504;2023-05-07T08:04:31;12.77;;;3.75;;
78402;SDS011;67687;43.508;1.504;2023-05-07T08:06:58;11.90;;;3.40;;
78402;SDS011;67687;43.508;1.504;2023-05-07T08:09:25;12.27;;;3.30;;
78402;SDS011;67687;43.508;1.504;2023-05-07T08:11:52;11.15;;;3.33;;
78402;SDS011;67687;43.508;1.504;2023-05-07T08:14:19;12.27;;;3.40;;
78402;SDS011;67687;43.508;1.504;2023-05-07T08:16:47;12.23;;;3.20;;
78402;SDS011;67687;43.508;1.504;2023-05-07T08:19:14;12.75;;;3.25;;
78402;SDS011;67687;43.508;1.504;2023-05-07T08:21:40;11.88;;;3.47;;
78402;SDS011;67687;43.508;1.504;2023-05-07T08:24:07;10.63;;;3.42;;
78402;SDS011;67687;43.508;1.504;2023-05-07T08:26:34;13.03;;;3.50;;
78402;SDS011;67687;43.508;1.504;2023-05-07T08:29:01;13.38;;;3.33;;
78402;SDS011;67687;43.508;1.504;2023-05-07T08:31:28;15.57;;;3.67;;
78402;SDS011;67687;43.508;1.504;2023-05-07T08:33:56;11.10;;;3.58;;
78402;SDS011;67687;43.508;1.504;2023-05-07T08:36:23;14.27;;;3.92;;
78402;SDS011;67687;43.508;1.504;2023-05-07T08:38:51;13.93;;;4.37;;
78402;SDS011;67687;43.508;1.504;2023-05-07T08:41:23;11.85;;;3.60;;
78402;SDS011;67687;43.508;1.504;2023-05-07T08:43:50;8.32;;;3.80;;
78402;SDS011;67687;43.508;1.504;2023-05-07T08:46:18;12.02;;;4.00;;
78402;SDS011;67687;43.508;1.504;2023-05-07T08:48:47;16.38;;;3.85;;
78402;SDS011;67687;43.508;1.504;2023-05-07T08:51:17;15.53;;;3.97;;
78402;SDS011;67687;43.508;1.504;2023-05-07T08:53:44;11.63;;;3.72;;
78402;SDS011;67687;43.508;1.504;2023-05-07T08:56:13;10.77;;;4.10;;
78402;SDS011;67687;43.508;1.504;2023-05-07T08:58:40;12.35;;;3.97;;
78402;SDS011;67687;43.508;1.504;2023-05-07T09:01:09;12.45;;;4.00;;
78402;SDS011;67687;43.508;1.504;2023-05-07T09:03:42;12.17;;;3.70;;
78402;SDS011;67687;43.508;1.504;2023-05-07T09:06:10;9.93;;;3.30;;
78402;SDS011;67687;43.508;1.504;2023-05-07T09:08:39;10.70;;;3.22;;
78402;SDS011;67687;43.508;1.504;2023-05-07T09:11:05;12.52;;;3.30;;
78402;SDS011;67687;43.508;1.504;2023-05-07T09:13:32;11.23;;;3.08;;
78402;SDS011;67687;43.508;1.504;2023-05-07T09:15:59;14.03;;;3.47;;
78402;SDS011;67687;43.508;1.504;2023-05-07T09:18:40;11.35;;;3.20;;
78402;SDS011;67687;43.508;1.504;2023-05-07T09:21:09;12.00;;;3.08;;
78402;SDS011;67687;43.508;1.504;2023-05-07T09:23:36;9.45;;;3.42;;
78402;SDS011;67687;43.508;1.504;2023-05-07T09:26:04;7.80;;;3.03;;
78402;SDS011;67687;43.508;1.504;2023-05-07T09:28:33;10.17;;;3.20;;
78402;SDS011;67687;43.508;1.504;2023-05-07T09:31:00;9.93;;;3.45;;
78402;SDS011;67687;43.508;1.504;2023-05-07T09:33:27;11.30;;;3.30;;
78402;SDS011;67687;43.508;1.504;2023-05-07T09:35:54;8.77;;;2.92;;
78402;SDS011;67687;43.508;1.504;2023-05-07T09:38:21;10.18;;;3.25;;
78402;SDS011;67687;43.508;1.504;2023-05-07T09:40:48;9.17;;;2.87;;
78402;SDS011;67687;43.508;1.504;2023-05-07T09:43:31;8.45;;;3.03;;
78402;SDS011;67687;43.508;1.504;2023-05-07T09:46:00;11.05;;;3.05;;
78402;SDS011;67687;43.508;1.504;2023-05-07T09:48:35;12.07;;;3.58;;
78402;SDS011;67687;43.508;1.504;2023-05-07T09:51:05;11.18;;;3.10;;
78402;SDS011;67687;43.508;1.504;2023-05-07T09:53:34;7.60;;;2.77;;
78402;SDS011;67687;43.508;1.504;2023-05-07T09:56:02;8.23;;;3.00;;
78402;SDS011;67687;43.508;1.504;2023-05-07T09:58:32;10.43;;;3.13;;
78402;SDS011;67687;43.508;1.504;2023-05-07T10:00:59;12.20;;;3.25;;
78402;SDS011;67687;43.508;1.504;2023-05-07T10:03:27;9.65;;;2.75;;
78402;SDS011;67687;43.508;1.504;2023-05-07T10:05:55;9.83;;;2.93;;
78402;SDS011;67687;43.508;1.504;2023-05-07T10:08:22;10.70;;;3.17;;
78402;SDS011;67687;43.508;1.504;2023-05-07T10:10:49;11.07;;;3.60;;
78402;SDS011;67687;43.508;1.504;2023-05-07T10:13:16;9.68;;;3.40;;
78402;SDS011;67687;43.508;1.504;2023-05-07T10:15:45;10.63;;;2.72;;
78402;SDS011;67687;43.508;1.504;2023-05-07T10:18:11;12.33;;;3.17;;
78402;SDS011;67687;43.508;1.504;2023-05-07T10:20:38;11.15;;;3.30;;
78402;SDS011;67687;43.508;1.504;2023-05-07T10:23:05;9.75;;;3.35;;
78402;SDS011;67687;43.508;1.504;2023-05-07T10:25:33;8.73;;;3.00;;
78402;SDS011;67687;43.508;1.504;2023-05-07T10:28:01;11.82;;;2.95;;
78402;SDS011;67687;43.508;1.504;2023-05-07T10:30:34;9.60;;;3.60;;
78402;SDS011;67687;43.508;1.504;2023-05-07T10:33:09;9.52;;;3.20;;
78402;SDS011;67687;43.508;1.504;2023-05-07T10:35:37;9.05;;;3.08;;
78402;SDS011;67687;43.508;1.504;2023-05-07T10:38:05;9.65;;;3.53;;
78402;SDS011;67687;43.508;1.504;2023-05-07T10:40:32;9.75;;;3.17;;
78402;SDS011;67687;43.508;1.504;2023-05-07T10:43:00;8.93;;;3.03;;
78402;SDS011;67687;43.508;1.504;2023-05-07T10:45:29;11.68;;;3.25;;
78402;SDS011;67687;43.508;1.504;2023-05-07T10:48:08;8.75;;;2.67;;
78402;SDS011;67687;43.508;1.504;2023-05-07T10:50:35;12.32;;;3.20;;
78402;SDS011;67687;43.508;1.504;2023-05-07T10:53:22;11.98;;;2.80;;
78402;SDS011;67687;43.508;1.504;2023-05-07T10:58:54;8.27;;;3.08;;
78402;SDS011;67687;43.508;1.504;2023-05-07T11:04:18;9.35;;;2.90;;
78402;SDS011;67687;43.508;1.504;2023-05-07T11:09:58;11.93;;;3.87;;
78402;SDS011;67687;43.508;1.504;2023-05-07T11:12:47;9.60;;;3.63;;
78402;SDS011;67687;43.508;1.504;2023-05-07T11:15:16;11.32;;;3.78;;
78402;SDS011;67687;43.508;1.504;2023-05-07T11:18:00;9.32;;;3.08;;
78402;SDS011;67687;43.508;1.504;2023-05-07T11:26:25;8.50;;;3.03;;
78402;SDS011;67687;43.508;1.504;2023-05-07T11:28:54;12.02;;;2.72;;
78402;SDS011;67687;43.508;1.504;2023-05-07T11:31:22;10.73;;;2.78;;
78402;SDS011;67687;43.508;1.504;2023-05-07T11:33:51;10.90;;;3.53;;
78402;SDS011;67687;43.508;1.504;2023-05-07T11:36:20;12.60;;;2.90;;
78402;SDS011;67687;43.508;1.504;2023-05-07T11:38:48;11.40;;;3.00;;
78402;SDS011;67687;43.508;1.504;2023-05-07T11:41:15;9.40;;;2.58;;
78402;SDS011;67687;43.508;1.504;2023-05-07T11:43:57;7.90;;;2.42;;
78402;SDS011;67687;43.508;1.504;2023-05-07T11:46:37;8.23;;;2.53;;
78402;SDS011;67687;43.508;1.504;2023-05-07T11:49:10;7.63;;;2.37;;
78402;SDS011;67687;43.508;1.504;2023-05-07T11:51:39;6.68;;;2.10;;
78402;SDS011;67687;43.508;1.504;2023-05-07T11:54:07;7.68;;;2.08;;
78402;SDS011;67687;43.508;1.504;2023-05-07T11:56:36;8.70;;;2.30;;
78402;SDS011;67687;43.508;1.504;2023-05-07T11:59:04;8.43;;;2.30;;
78402;SDS011;67687;43.508;1.504;2023-05-07T12:01:31;9.00;;;2.60;;
78402;SDS011;67687;43.508;1.504;2023-05-07T12:03:58;8.77;;;2.40;;
78402;SDS011;67687;43.508;1.504;2023-05-07T12:06:24;7.25;;;2.20;;
78402;SDS011;67687;43.508;1.504;2023-05-07T12:08:53;9.43;;;2.53;;
78402;SDS011;67687;43.508;1.504;2023-05-07T12:11:25;8.20;;;2.40;;
78402;SDS011;67687;43.508;1.504;2023-05-07T12:13:53;8.97;;;2.40;;
78402;SDS011;67687;43.508;1.504;2023-05-07T12:16:21;6.85;;;2.13;;
78402;SDS011;67687;43.508;1.504;2023-05-07T12:18:48;8.02;;;2.40;;
78402;SDS011;67687;43.508;1.504;2023-05-07T12:21:15;9.18;;;2.47;;
78402;SDS011;67687;43.508;1.504;2023-05-07T12:23:42;8.77;;;2.50;;
78402;SDS011;67687;43.508;1.504;2023-05-07T12:26:11;8.17;;;2.50;;
78402;SDS011;67687;43.508;1.504;2023-05-07T12:28:39;7.70;;;2.38;;
78402;SDS011;67687;43.508;1.504;2023-05-07T12:31:06;7.88;;;2.40;;
78402;SDS011;67687;43.508;1.504;2023-05-07T12:33:33;10.85;;;3.08;;
78402;SDS011;67687;43.508;1.504;2023-05-07T12:36:02;6.85;;;2.33;;
78402;SDS011;67687;43.508;1.504;2023-05-07T12:38:36;7.37;;;2.43;;
78402;SDS011;67687;43.508;1.504;2023-05-07T12:41:04;9.00;;;2.67;;
78402;SDS011;67687;43.508;1.504;2023-05-07T12:43:33;6.70;;;2.45;;
78402;SDS011;67687;43.508;1.504;2023-05-07T12:46:01;8.65;;;2.97;;
78402;SDS011;67687;43.508;1.504;2023-05-07T12:48:29;7.60;;;2.42;;
78402;SDS011;67687;43.508;1.504;2023-05-07T12:50:57;7.50;;;2.70;;
78402;SDS011;67687;43.508;1.504;2023-05-07T12:53:25;8.80;;;2.05;;
78402;SDS011;67687;43.508;1.504;2023-05-07T12:55:54;6.70;;;2.08;;
78402;SDS011;67687;43.508;1.504;2023-05-07T12:58:24;7.55;;;2.40;;
78402;SDS011;67687;43.508;1.504;2023-05-07T13:00:53;11.68;;;2.65;;
78402;SDS011;67687;43.508;1.504;2023-05-07T13:03:24;8.30;;;2.27;;
78402;SDS011;67687;43.508;1.504;2023-05-07T13:05:54;5.10;;;1.85;;
78402;SDS011;67687;43.508;1.504;2023-05-07T13:08:28;7.35;;;2.38;;
78402;SDS011;67687;43.508;1.504;2023-05-07T13:10:57;6.68;;;2.00;;
78402;SDS011;67687;43.508;1.504;2023-05-07T13:13:24;7.05;;;2.50;;
78402;SDS011;67687;43.508;1.504;2023-05-07T13:15:53;7.47;;;2.13;;
78402;SDS011;67687;43.508;1.504;2023-05-07T13:18:20;8.05;;;2.58;;
78402;SDS011;67687;43.508;1.504;2023-05-07T13:20:47;9.30;;;2.20;;
78402;SDS011;67687;43.508;1.504;2023-05-07T13:23:13;8.45;;;2.28;;
78402;SDS011;67687;43.508;1.504;2023-05-07T13:25:40;8.35;;;1.90;;
78402;SDS011;67687;43.508;1.504;2023-05-07T13:28:07;5.97;;;1.63;;
78402;SDS011;67687;43.508;1.504;2023-05-07T13:30:34;7.18;;;2.30;;
78402;SDS011;67687;43.508;1.504;2023-05-07T13:33:02;7.07;;;2.08;;
78402;SDS011;67687;43.508;1.504;2023-05-07T13:35:29;7.20;;;1.98;;
78402;SDS011;67687;43.508;1.504;2023-05-07T13:37:57;6.45;;;1.90;;
78402;SDS011;67687;43.508;1.504;2023-05-07T13:40:24;10.77;;;2.50;;
78402;SDS011;67687;43.508;1.504;2023-05-07T13:42:53;7.55;;;2.10;;
78402;SDS011;67687;43.508;1.504;2023-05-07T13:45:19;6.43;;;1.98;;
78402;SDS011;67687;43.508;1.504;2023-05-07T13:47:46;8.55;;;2.13;;
78402;SDS011;67687;43.508;1.504;2023-05-07T13:50:16;6.38;;;2.10;;
78402;SDS011;67687;43.508;1.504;2023-05-07T13:52:43;7.33;;;1.73;;
78402;SDS011;67687;43.508;1.504;2023-05-07T13:55:15;5.20;;;1.80;;
78402;SDS011;67687;43.508;1.504;2023-05-07T13:57:42;6.93;;;1.90;;
78402;SDS011;67687;43.508;1.504;2023-05-07T14:00:10;7.00;;;1.73;;
78402;SDS011;67687;43.508;1.504;2023-05-07T14:02:37;6.53;;;1.85;;
78402;SDS011;67687;43.508;1.504;2023-05-07T14:05:05;5.33;;;1.90;;
78402;SDS011;67687;43.508;1.504;2023-05-07T14:07:34;10.35;;;2.10;;
78402;SDS011;67687;43.508;1.504;2023-05-07T14:10:01;6.30;;;2.10;;
78402;SDS011;67687;43.508;1.504;2023-05-07T14:12:28;8.65;;;2.35;;
78402;SDS011;67687;43.508;1.504;2023-05-07T14:14:54;5.07;;;2.00;;
78402;SDS011;67687;43.508;1.504;2023-05-07T14:17:21;6.93;;;2.20;;
78402;SDS011;67687;43.508;1.504;2023-05-07T14:19:51;7.20;;;2.00;;
78402;SDS011;67687;43.508;1.504;2023-05-07T14:22:19;8.05;;;2.10;;
78402;SDS011;67687;43.508;1.504;2023-05-07T14:24:48;33.15;;;3.42;;
78402;SDS011;67687;43.508;1.504;2023-05-07T14:27:15;19.20;;;2.67;;
78402;SDS011;67687;43.508;1.504;2023-05-07T14:29:42;7.43;;;1.90;;
78402;SDS011;67687;43.508;1.504;2023-05-07T14:32:10;8.65;;;2.20;;
78402;SDS011;67687;43.508;1.504;2023-05-07T14:34:37;8.88;;;2.28;;
78402;SDS011;67687;43.508;1.504;2023-05-07T14:37:04;6.32;;;2.22;;
78402;SDS011;67687;43.508;1.504;2023-05-07T14:39:31;8.57;;;2.10;;
78402;SDS011;67687;43.508;1.504;2023-05-07T14:41:59;7.70;;;2.40;;
78402;SDS011;67687;43.508;1.504;2023-05-07T14:45:30;7.03;;;2.00;;
78402;SDS011;67687;43.508;1.504;2023-05-07T14:47:57;6.40;;;1.93;;
78402;SDS011;67687;43.508;1.504;2023-05-07T14:50:24;7.25;;;1.88;;
78402;SDS011;67687;43.508;1.504;2023-05-07T14:52:51;93.32;;;7.57;;
78402;SDS011;67687;43.508;1.504;2023-05-07T14:55:18;27.80;;;3.38;;
78402;SDS011;67687;43.508;1.504;2023-05-07T14:57:44;7.60;;;2.10;;
78402;SDS011;67687;43.508;1.504;2023-05-07T15:00:12;6.70;;;1.97;;